Tiempo atmosférico en la estación meteorológica de Huelva, Ronda Este, Huelva (19 m.)



Fecha
DESCASC
Temp. máxima en grados centígrados (hora)
DESCASC
Temp. mínima en grados centígrados (hora)
DESCASC
Temp. media en grados centígrados
DESCASC
Racha de viento máxima en m/sg (hora)
DESCASC
Velocidad máxima media en intervalos de 10 minutos(hora)
DESCASC
Precipitaciones diarias en mm
DESCASC
Precipitaciones de 00:00 a 06:00 en mm
DESCASC
Precipitaciones de 06:00 a 12:00 en mm
DESCASC
Precipitaciones de 12:00 a 18:00 en mm
DESCASC
Precipitaciones de 18:00 a 24:00 en mm
DESCASC
05-12-2019 18.6 (15:50) 4.3 (07:00) 11.5 9.72 (15:00) 5.56 (15:00) 0 0 0 0 0
04-12-2019 15.2 (15:50) 7.5 (07:30) 11.3 6.94 (14:40) 4.17 (14:40) 0 0 0 0 0
03-12-2019 20.4 (16:30) 8.8 (00:00) 14.6 7.5 (23:20) 4.72 (17:10) 0 0 0 0 0
02-12-2019 16.3 (16:10) 10.7 (00:00) 13.5 10 (16:20) 5.83 (15:50) 0.8 0 0.8 0 0
01-12-2019 17 (15:20) 8.8 (00:00) 12.9 8.33 (13:00) 6.11 (13:00) 0.4 0 0 0.4 0
30-11-2019 21 (14:30) 9.4 (00:00) 15.2 7.78 (19:50) 5.56 (16:10) 0 0 0 0 0
29-11-2019 21.6 (16:10) 9.3 (00:00) 15.5 4.72 (23:59) 3.06 (16:40) 0 0 0 0 0
28-11-2019 19.7 (15:30) 10.8 (00:00) 15.3 5.83 (15:40) 3.33 (17:20) 0 0 0 0 0
27-11-2019 20.1 (13:40) 12.9 (00:00) 16.5 5.56 (15:40) 4.17 (15:40) 0 0 0 0 0
26-11-2019 19.7 (16:10) 13.9 (00:00) 16.8 9.72 (16:40) 6.39 (17:00) 1.6 0 0.2 0 1.4
25-11-2019 18.8 (14:00) 14.3 (00:00) 16.5 9.44 (14:20) 6.39 (14:20) 0 0 0 0 0
24-11-2019 17.9 (14:30) 7.3 (00:00) 12.6 8.61 (15:00) 6.11 (15:50) 0 0 0 0 0
23-11-2019 18.2 (14:50) 10.3 (00:00) 14.3 13.33 (04:40) 7.78 (14:50) 0.4 0.4 0 0 0
22-11-2019 18 (14:20) 13 (00:00) 15.5 17.22 (15:30) 10.56 (15:30) 10 0.2 3.4 6.4 0
21-11-2019 17.3 (14:40) 10.8 (00:00) 14 5.83 (15:40) 3.89 (15:40) 8.6 1.2 3.4 4 0
20-11-2019 16 (15:50) 7.5 (00:00) 11.8 6.39 (12:20) 3.61 (12:20) 6.6 0 5.6 0 1
19-11-2019 17.5 (14:40) 4.6 (00:00) 11 5.56 (03:10) 3.89 (02:20) 0 0 0 0 0
18-11-2019 17.8 (15:10) 9 (00:00) 13.4 15 (01:40) 8.61 (01:00) 0 0 0 0 0
17-11-2019 19.2 (15:20) 6.2 (00:00) 12.7 10.83 (15:30) 6.67 (15:40) 0.6 0 0.6 0 0
16-11-2019 17 (15:50) 4.7 (00:00) 10.8 9.44 (08:30) 5.83 (16:30) 0 0 0 0 0
15-11-2019 16 (15:10) 7.6 (00:00) 11.8 14.17 (14:20) 8.89 (16:10) 0 0 0 0 0
14-11-2019 16.1 (12:30) 10.5 (00:00) 13.3 13.33 (13:10) 8.89 (15:30) 0.2 0 0 0.2 0
13-11-2019 23.7 (15:00) 13.8 (00:00) 18.8 10.83 (12:40) 7.22 (12:40) 0 0 0 0 0
12-11-2019 20.3 (16:30) 9.7 (00:00) 15 10.56 (00:50) 5.28 (08:40) 0 0 0 0 0
11-11-2019 20.3 (14:40) 12.9 (02:30) 16.6 9.17 (16:20) 5 (16:40) 1.8 1.4 0.4 0 0
10-11-2019 19.1 (15:10) 12.5 (00:00) 15.8 13.89 (15:00) 6.94 (23:30) 0 0 0 0 0
09-11-2019 20.3 (16:20) 7.6 (00:00) 13.9 10 (15:30) 5.83 (15:40) 0 0 0 0 0
08-11-2019 19.1 (15:30) 9.9 (00:00) 14.5 12.5 (12:50) 5.83 (15:20) 0 0 0 0 0

Gráficas

Temp. máximas Temp. mínimas Temp. medias Precipitaciones Rachas de viento máximas Velocidades máximas media en intervalos de 10 minutos

Datos horarios

Fecha y hora oficial Temperatura (ºC) Velocidad del viento (km/h) Dirección del viento Racha (km/h) Dirección de racha Precipitación (mm) Presión (hPa) Tendencia (hPa) Humedad (%)
2019-12-07 23:00:00 11.7 5 Noroeste 14 Noroeste 0 1023.3 1.1 74
2019-12-07 22:00:00 12.4 6 Noroeste 13 Noroeste 0 1022.8 1.3 73
2019-12-07 21:00:00 13.1 10 Noroeste 13 Noroeste 0 1022.6 1.6 71
2019-12-07 20:00:00 13.9 6 Oeste 13 Oeste 0 1022.2 1.7 68
2019-12-07 19:00:00 15.1 7 Oeste 10 Oeste 0 1021.5 1.4 62
2019-12-07 18:00:00 18.4 5 Oeste 20 Noroeste 0 1021 0.7 51
2019-12-07 17:00:00 20.3 12 Noroeste 20 Noroeste 0 1020.5 -0.2 47
2019-12-07 16:00:00 20.9 6 Oeste 14 Norte 0 1020.1 -1.5 44
2019-12-07 15:00:00 20 4 Nordeste 12 Nordeste 0 1020.3 -1.8 48
2019-12-07 14:00:00 19.2 4 Este 17 Este 0 1020.7 -1.4 51
2019-12-07 13:00:00 17.4 8 Nordeste 18 Este 0 1021.6 0 56
2019-12-07 12:00:00 15.5 6 Nordeste 13 Nordeste 0 1022.1 1 62
2019-12-07 11:00:00 12 5 Norte 11 Nordeste 0 1022.1 1.5 76
2019-12-07 10:00:00 9.6 5 Norte 8 Nordeste 0 1021.6 1.7 82
2019-12-07 09:00:00 7.2 3 Norte 15 Noroeste 0 1021.1 1.6 89
2019-12-07 08:00:00 7.5 9 Noroeste 14 Noroeste 0 1020.6 1.2 90
2019-12-07 07:00:00 6.8 4 Nordeste 9 Norte 0 1019.9 0.5 89
2019-12-07 06:00:00 8.4 6 Norte 12 Norte 0 1019.5 0.2 87
2019-12-07 05:00:00 7.8 6 Norte 12 Nordeste 0 1019.4 0.1 88
2019-12-07 04:00:00 7.2 8 Nordeste 10 Nordeste 0 1019.4 -0.2 88
2019-12-07 03:00:00 10.2 7 Noroeste 13 Noroeste 0 1019.3 0.1 82
2019-12-07 02:00:00 9.4 0 Calma 6 Oeste 0 1019.3 0.6 84
2019-12-07 01:00:00 9.4 3 Oeste 13 Norte 0 1019.6 1.3 81
2019-12-07 00:00:00 11.4 4 Nordeste 13 Noroeste 0 1019.2 1.3 73
2019-12-06 23:00:00 11.3 3 Norte 10 Nordeste 0 1018.7 1.2 72
2019-12-06 22:00:00 12.2 7 Nordeste 11 Nordeste 0 1018.3 1.4 69
2019-12-06 21:00:00 13.8 5 Nordeste 10 Nordeste 0 1017.9 1.5 61
2019-12-06 20:00:00 15.5 8 Norte 12 Norte 0 1017.5 1.3 54
2019-12-06 19:00:00 16.7 4 Este 5 Sudeste 0 1016.9 0.8 52
2019-12-06 18:00:00 18.6 2 Este 15 Este 0 1016.4 0.2 48
2019-12-06 17:00:00 19.9 10 Este 22 Este 0 1016.2 -0.6 41
2019-12-06 16:00:00 20.3 12 Este 21 Este 0 1016.1 -1.3 40
2019-12-06 15:00:00 20.1 11 Este 22 Este 0 1016.2 -1.5 43
2019-12-06 14:00:00 19.2 14 Este 28 Nordeste 0 1016.8 -1.2 44
2019-12-06 13:00:00 18.3 15 Nordeste 26 Este 0 1017.4 -0.1 48
2019-12-06 12:00:00 17.3 13 Este 22 Este 0 1017.7 0.5 53
2019-12-06 11:00:00 13.4 5 Norte 10 Nordeste 0 1018 1.7 69
2019-12-06 10:00:00 11.4 7 Norte 15 Norte 0 1017.5 1.8 73
2019-12-06 09:00:00 9.3 8 Norte 20 Norte 0 1017.2 2 79
2019-12-06 08:00:00 9.7 10 Norte 21 Norte 0 1016.3 1.5 78
2019-12-06 07:00:00 9.4 8 Norte 15 Norte 0 1015.7 0.8 79
2019-12-06 06:00:00 9.3 10 Norte 24 Norte 0 1015.2 0.6 80
2019-12-06 05:00:00 9.5 6 Noroeste 12 Noroeste 0 1014.8 0.2 80
2019-12-06 04:00:00 9.3 5 Noroeste 11 Norte 0 1014.9 0.2 82
2019-12-06 03:00:00 9.8 4 Noroeste 11 Nordeste 0 1014.6 -0.3 80
2019-12-06 02:00:00 10.9 8 Norte 14 Nordeste 0 1014.6 0 76
2019-12-06 01:00:00 10.3 5 Norte 12 Norte 0 1014.7 0.4 78
2019-12-06 00:00:00 10.2 5 Nordeste 15 Norte 0 1014.9 1.4 76
2019-12-05 23:00:00 11 11 Norte 17 Norte 0 1014.6 1.4 72
2019-12-05 22:00:00 11 6 Norte 12 Nordeste 0 1014.3 1.7 71
2019-12-05 21:00:00 12.4 8 Nordeste 12 Nordeste 0 1013.5 1.3 68
2019-12-05 20:00:00 13.7 7 Nordeste 10 Nordeste 0 1013.2 1.6 66
2019-12-05 19:00:00 15.7 7 Nordeste 17 Nordeste 0 1012.6 1.7 59
2019-12-05 18:00:00 16.5 8 Este 18 Este 0 1012.2 1.3 56
2019-12-05 17:00:00 17.2 12 Este 24 Este 0 1011.6 0 52
2019-12-05 16:00:00 18.1 16 Este 31 Este 0 1010.9 -1.1 50
2019-12-05 15:00:00 18.1 20 Este 35 Este 0 1010.9 -1.8 51
2019-12-05 14:00:00 17.5 16 Este 29 Este 0 1011.6 -1.2 53
2019-12-05 13:00:00 16.5 14 Nordeste 28 Este 0 1012 -0.4 59
2019-12-05 12:00:00 14.1 7 Este 14 Este 0 1012.7 1.1 72
2019-12-05 11:00:00 10.9 10 Nordeste 15 Nordeste 0 1012.8 1.9 79
2019-12-05 10:00:00 7.7 6 Nordeste 15 Norte 0 1012.4 2.2 88
2019-12-05 09:00:00 5.7 8 Norte 18 Norte 0 1011.6 1.7 93
2019-12-05 08:00:00 5.9 5 Norte 16 Noroeste 0 1010.9 1.2 94
2019-12-05 07:00:00 4.3 0 Calma 5 Sur 0 1010.2 0.6 93
2019-12-05 06:00:00 6.5 3 Noroeste 12 Norte 0 1009.9 0.5 93
2019-12-05 05:00:00 5.3 3 Sudoeste 8 Noroeste 0 1009.7 0.4 92
2019-12-05 04:00:00 5.8 5 Norte 11 Norte 0 1009.6 0.2 94
2019-12-05 03:00:00 6 6 Norte 10 Norte 0 1009.4 0.3 91
2019-12-05 02:00:00 6.5 8 Norte 11 Norte 0 1009.3 0.4 91
2019-12-05 01:00:00 8 7 Norte 16 Norte 0 1009.4 0.7 88
2019-12-05 00:00:00 8.6 6 Norte 12 Norte 0 1009.1 0.8 85
2019-12-04 23:00:00 9.1 4 Noroeste 9 Norte 0 1008.9 1 81
2019-12-04 22:00:00 9.4 3 Oeste 13 Oeste 0 1008.7 1.5 75
2019-12-04 21:00:00 10 8 Noroeste 11 Noroeste 0 1008.3 1.5 72
2019-12-04 20:00:00 11.1 6 Noroeste 9 Oeste 0 1007.9 1.3 68
2019-12-04 19:00:00 12.5 6 Oeste 10 Oeste 0 1007.2 0.5 65
2019-12-04 18:00:00 13.4 6 Oeste 10 Oeste 0 1006.8 0 60
2019-12-04 17:00:00 14.4 8 Noroeste 19 Oeste 0 1006.6 -0.6 55
2019-12-04 16:00:00 14.9 9 Noroeste 23 Noroeste 0 1006.7 -1.3 48
2019-12-04 15:00:00 14.7 12 Noroeste 25 Noroeste 0 1006.8 -1.9 53
2019-12-04 14:00:00 14.7 13 Oeste 19 Noroeste 0 1007.2 -1.7 55
2019-12-04 13:00:00 13.2 11 Noroeste 17 Noroeste 0 1008 -0.6 64
2019-12-04 12:00:00 12.3 10 Oeste 17 Oeste 0 1008.7 0.5 70
2019-12-04 11:00:00 10.5 6 Norte 17 Oeste 0 1008.9 0.7 77
2019-12-04 10:00:00 9.6 8 Norte 18 Norte 0 1008.6 0.5 79
2019-12-04 09:00:00 8.3 7 Norte 17 Oeste 0 1008.2 -0.1 84
2019-12-04 08:00:00 7.6 10 Noroeste 16 Noroeste 0 1008.2 0.2 88
2019-12-04 07:00:00 8 6 Oeste 14 Noroeste 0 1008.1 -0.4 87
2019-12-04 06:00:00 8.3 9 Noroeste 17 Noroeste 0 1008.3 -0.7 89
2019-12-04 05:00:00 8.8 5 Noroeste 10 Norte 0 1008 -1.1 88
2019-12-04 04:00:00 9.3 4 Nordeste 22 Noroeste 0 1008.5 -1.1 84
2019-12-04 03:00:00 9.9 10 Noroeste 20 Noroeste 0 1009 -0.8 82
2019-12-04 02:00:00 9.9 6 Noroeste 15 Oeste 0 1009.1 -0.7 83
2019-12-04 01:00:00 10.6 5 Noroeste 20 Noroeste 0 1009.6 0.3 80
2019-12-04 00:00:00 11.4 9 Noroeste 27 Norte 0 1009.8 0.8 78
2019-12-03 23:00:00 11.9 7 Noroeste 19 Oeste 0 1009.8 1.2 75
2019-12-03 22:00:00 12.9 7 Noroeste 18 Norte 0 1009.3 1.2 70
2019-12-03 21:00:00 14.1 10 Noroeste 19 Norte 0 1009 1.2 66
2019-12-03 20:00:00 15 10 Norte 21 Norte 0 1008.6 1 64
2019-12-03 19:00:00 15.1 9 Noroeste 15 Noroeste 0 1008.1 0.8 66
2019-12-03 18:00:00 17.6 13 Oeste 23 Noroeste 0 1007.8 0.4 56
2019-12-03 17:00:00 19.7 17 Noroeste 22 Noroeste 0 1007.6 -0.4 48
2019-12-03 16:00:00 20.2 12 Oeste 19 Noroeste 0 1007.3 -1.5 45
2019-12-03 15:00:00 19.5 5 Oeste 15 Norte 0 1007.4 -2.3 46
2019-12-03 14:00:00 18.5 8 Nordeste 18 Nordeste 0 1008 -2.1 49
2019-12-03 13:00:00 17.6 8 Nordeste 16 Norte 0 1008.8 -1.2 52
2019-12-03 12:00:00 15.5 9 Norte 22 Norte 0 1009.7 0.1 62
2019-12-03 11:00:00 13.5 13 Norte 21 Norte 0 1010.1 1 70
2019-12-03 10:00:00 10.8 10 Norte 20 Norte 0 1010 1.1 81
2019-12-03 09:00:00 9.5 10 Norte 20 Noroeste 0 1009.6 0.8 84
2019-12-03 08:00:00 9 6 Norte 15 Norte 0 1009.1 0 87
2019-12-03 07:00:00 9.4 9 Norte 21 Norte 0 1008.9 -0.5 84
2019-12-03 06:00:00 9.9 9 Noroeste 18 Noroeste 0 1008.8 -0.7 83
2019-12-03 05:00:00 10.1 6 Norte 16 Norte 0 1009.1 -0.6 83
2019-12-03 04:00:00 9.4 9 Norte 15 Nordeste 0 1009.4 -0.6 87
2019-12-03 03:00:00 9.8 8 Nordeste 13 Nordeste 0 1009.5 -0.7 86
2019-12-03 02:00:00 10.3 9 Norte 16 Nordeste 0 1009.7 -0.2 84
2019-12-03 01:00:00 11 9 Norte 17 Norte 0 1010 0.3 82
2019-12-03 00:00:00 11.2 7 Norte 15 Norte 0 1010.2 0.9 82
2019-12-02 23:00:00 11.1 6 Nordeste 15 Nordeste 0 1009.9 1.2 82
2019-12-02 22:00:00 11.6 10 Nordeste 14 Nordeste 0 1009.7 1.8 81
2019-12-02 21:00:00 12.1 8 Nordeste 13 Nordeste 0 1009.3 1.9 81
2019-12-02 20:00:00 13.1 3 Nordeste 17 Nordeste 0 1008.7 2 77
2019-12-02 19:00:00 14.1 10 Nordeste 17 Nordeste 0 1007.9 1.7 77
2019-12-02 18:00:00 15.1 12 Este 23 Este 0 1007.4 1.2 70
2019-12-02 17:00:00 15.6 13 Nordeste 36 Este 0 1006.7 0.1 67
2019-12-02 16:00:00 16 14 Este 34 Este 0 1006.2 -0.9 65
2019-12-02 15:00:00 15.9 18 Este 33 Nordeste 0 1006.2 -1.6 67
2019-12-02 14:00:00 15.1 17 Este 33 Este 0 1006.6 -1.3 71
2019-12-02 13:00:00 14.9 13 Nordeste 33 Este 0 1007.1 0 72
2019-12-02 12:00:00 13.9 15 Nordeste 30 Este 0 1007.8 1.2 80
2019-12-02 11:00:00 12.7 12 Nordeste 20 Nordeste 0 1007.9 1.5 83
2019-12-02 10:00:00 12 10 Norte 20 Norte 0.2 1007.1 1.2 86
2019-12-02 09:00:00 10.8 6 Norte 17 Norte 0.4 1006.6 0.8 95
2019-12-02 08:00:00 10.9 8 Nordeste 21 Norte 0.2 1006.4 0.5 93
2019-12-02 07:00:00 11.2 13 Norte 23 Norte 0 1005.9 0 87
2019-12-02 06:00:00 11 7 Noroeste 18 Norte 0 1005.8 -0.2 90
2019-12-02 05:00:00 10.9 6 Norte 17 Norte 0 1005.9 -0.4 92
2019-12-02 04:00:00 11.2 4 Noroeste 14 Norte 0 1005.9 -0.9 93
2019-12-02 03:00:00 11.7 5 Noroeste 15 Oeste 0 1006 -1.2 93
2019-12-02 02:00:00 12 5 Oeste 14 Oeste 0 1006.3 -1.2 91
2019-12-02 01:00:00 12.5 10 Oeste 18 Noroeste 0 1006.8 -0.9 89
2019-12-02 00:00:00 12.7 13 Oeste 21 Oeste 0 1007.2 -0.7 88
2019-12-01 23:00:00 12.9 8 Oeste 24 Oeste 0 1007.5 -0.5 84
2019-12-01 22:00:00 12.9 13 Oeste 23 Oeste 0 1007.7 -0.3 79
2019-12-01 21:00:00 13.5 12 Oeste 27 Oeste 0 1007.9 0.1 77
2019-12-01 20:00:00 13.8 17 Oeste 24 Oeste 0 1008 -0.2 77
2019-12-01 19:00:00 14.1 14 Oeste 28 Oeste 0 1008 -0.5 76
2019-12-01 18:00:00 15.6 12 Oeste 23 Oeste 0 1007.8 -1.4 66
2019-12-01 17:00:00 16.3 17 Sudoeste 30 Oeste 0 1008.2 -2.1 76
2019-12-01 16:00:00 16.3 17 Sudoeste 25 Sudoeste 0 1008.5 -2.9 76
2019-12-01 15:00:00 16.6 12 Oeste 20 Sudoeste 0 1009.2 -3.1 76
2019-12-01 14:00:00 14.7 14 Sudoeste 27 Sudoeste 0.4 1010.3 -2.6 92
2019-12-01 13:00:00 15.2 22 Sudoeste 30 Sudoeste 0 1011.4 -1.7 79
2019-12-01 12:00:00 15.3 13 Sudoeste 25 Sudoeste 0 1012.3 -0.8 80
2019-12-01 11:00:00 13.3 13 Sudoeste 18 Sudoeste 0 1012.9 -0.3 94
2019-12-01 10:00:00 10.6 3 Este 5 Nordeste 0 1013.1 -0.2 99
2019-12-01 09:00:00 9.4 4 Nordeste 10 Nordeste 0 1013.1 -0.6 99
2019-12-01 08:00:00 9.2 3 Este 7 Nordeste 0 1013.2 -1 98
2019-12-01 07:00:00 9.5 3 Sudeste 8 Noroeste 0 1013.3 -1.4 96
2019-12-01 06:00:00 10.4 3 Sudoeste 8 Oeste 0 1013.7 -1.7 95
2019-12-01 05:00:00 11.9 6 Noroeste 10 Noroeste 0 1014.2 -1.3 96
2019-12-01 04:00:00 12.2 4 Noroeste 8 Noroeste 0 1014.7 -1.6 95
2019-12-01 03:00:00 13 7 Oeste 12 Noroeste 0 1015.4 -1.2 94
2019-12-01 02:00:00 14.3 7 Oeste 12 Oeste 0 1015.5 -1.1 91
2019-12-01 01:00:00 15.2 9 Noroeste 17 Oeste 0 1016.3 -0.9 89
2019-12-01 00:00:00 15.7 13 Oeste 18 Oeste 0 1016.6 -0.6 87
2019-11-30 23:00:00 15.9 8 Oeste 24 Oeste 0 1016.6 -0.7 87
2019-11-30 22:00:00 16.2 15 Oeste 26 Oeste 0 1017.2 -0.3 87
2019-11-30 21:00:00 16 18 Sudoeste 27 Oeste 0 1017.2 -0.3 89
2019-11-30 20:00:00 16.2 16 Sudoeste 28 Sudoeste 0 1017.3 -0.3 84
2019-11-30 19:00:00 16.4 16 Sudoeste 25 Sudoeste 0 1017.5 -0.4 82
2019-11-30 18:00:00 16.6 15 Sudoeste 25 Sudoeste 0 1017.5 -0.7 84
2019-11-30 17:00:00 16.9 18 Sudoeste 28 Sudoeste 0 1017.6 -1.5 79
2019-11-30 16:00:00 17.8 18 Sudoeste 27 Sudoeste 0 1017.9 -2.2 73
2019-11-30 15:00:00 20.2 13 Noroeste 22 Noroeste 0 1018.2 -2.7 57
2019-11-30 14:00:00 20.5 9 Oeste 18 Oeste 0 1019.1 -1.8 57
2019-11-30 13:00:00 19.5 5 Oeste 12 Oeste 0 1020.1 -0.7 64
2019-11-30 12:00:00 16.8 4 Noroeste 9 Noroeste 0 1020.9 0.6 77
2019-11-30 11:00:00 14.3 0 Calma 7 Nordeste 0 1020.9 0.7 83
2019-11-30 10:00:00 12.2 4 Nordeste 6 Nordeste 0 1020.8 0.9 90
2019-11-30 09:00:00 9.7 4 Nordeste 7 Norte 0 1020.3 0.4 96
2019-11-30 08:00:00 10 4 Norte 8 Norte 0 1020.2 0.3 94
2019-11-30 07:00:00 10.7 7 Norte 18 Norte 0 1019.9 0.2 91
2019-11-30 06:00:00 10.2 2 Norte 8 Norte 0 1019.9 0.1 94
2019-11-30 05:00:00 10.6 3 Norte 8 Norte 0 1019.9 -0.3 94
2019-11-30 04:00:00 10.8 5 Norte 10 Norte 0 1019.7 -0.9 93
2019-11-30 03:00:00 11.6 2 Nordeste 17 Noroeste 0 1019.8 -0.4 89
2019-11-30 02:00:00 12 3 Norte 10 Norte 0 1020.2 0.1 89
2019-11-30 01:00:00 12.6 5 Norte 21 Norte 0 1020.6 0.7 88
2019-11-30 00:00:00 14.7 10 Norte 17 Norte 0 1020.2 0.2 77
2019-11-29 23:00:00 14.8 8 Noroeste 13 Norte 0 1020.1 0.1 81
2019-11-29 22:00:00 14.3 3 Noroeste 11 Noroeste 0 1019.9 0.2 86
2019-11-29 21:00:00 15 8 Noroeste 10 Noroeste 0 1020 0.5 84
2019-11-29 20:00:00 15.3 6 Noroeste 8 Oeste 0 1020 0.6 83
2019-11-29 19:00:00 16.4 6 Oeste 9 Oeste 0 1019.7 0.5 78
2019-11-29 18:00:00 18.2 4 Oeste 13 Oeste 0 1019.5 0.1 71
2019-11-29 17:00:00 19.4 9 Sudoeste 15 Sudoeste 0 1019.4 -0.8 67
2019-11-29 16:00:00 21.5 7 Oeste 17 Oeste 0 1019.2 -1.6 56
2019-11-29 15:00:00 20.6 3 Este 11 Noroeste 0 1019.4 -2 60
2019-11-29 14:00:00 19.8 4 Noroeste 13 Noroeste 0 1020.2 -1.1 66
2019-11-29 13:00:00 18.5 5 Noroeste 10 Noroeste 0 1020.8 -0.1 72
2019-11-29 12:00:00 16.7 4 Nordeste 8 Nordeste 0 1021.4 1.2 79
2019-11-29 11:00:00 14.4 4 Nordeste 7 Norte 0 1021.3 1.7 86
2019-11-29 10:00:00 11.9 5 Nordeste 9 Nordeste 0 1020.9 1.7 92
2019-11-29 09:00:00 9.8 6 Nordeste 10 Nordeste 0 1020.2 1.2 98
2019-11-29 08:00:00 9.3 7 Nordeste 9 Nordeste 0 1019.6 0.7 98
2019-11-29 07:00:00 9.6 3 Nordeste 7 Norte 0 1019.2 0.3 98
2019-11-29 06:00:00 10 4 Nordeste 7 Nordeste 0 1019 0.3 98
2019-11-29 05:00:00 10.5 4 Norte 10 Norte 0 1018.9 0.4 99
2019-11-29 04:00:00 10.4 4 Nordeste 7 Nordeste 0 1018.9 0.2 99
2019-11-29 03:00:00 11 3 Norte 9 Nordeste 0 1018.7 -0.1 99
2019-11-29 02:00:00 11.3 5 Norte 9 Nordeste 0 1018.5 -0.4 98
2019-11-29 01:00:00 11.8 5 Nordeste 10 Nordeste 0 1018.7 0.2 98
2019-11-29 00:00:00 12.6 5 Nordeste 7 Nordeste 0 1018.8 0.9 97
2019-11-28 23:00:00 13 4 Nordeste 7 Nordeste 0 1018.9 1.4 96
2019-11-28 22:00:00 13.6 3 Nordeste 7 Nordeste 0 1018.5 1.2 93
2019-11-28 21:00:00 14.2 4 Sudoeste 13 Sudoeste 0 1017.9 1 91
2019-11-28 20:00:00 15.3 8 Sudoeste 15 Sudoeste 0 1017.5 0.7 87
2019-11-28 19:00:00 15.9 12 Sudoeste 17 Sudoeste 0 1017.3 0.8 83
2019-11-28 18:00:00 16.8 9 Sudoeste 18 Sudoeste 0 1016.9 0 77
2019-11-28 17:00:00 19.1 11 Sudoeste 15 Sudoeste 0 1016.8 -0.6 65
2019-11-28 16:00:00 19.2 10 Sur 21 Sur 0 1016.5 -1.6 64
2019-11-28 15:00:00 19.3 8 Sur 15 Sur 0 1016.9 -1.7 64
2019-11-28 14:00:00 19 9 Sur 15 Sur 0 1017.4 -1.3 68
2019-11-28 13:00:00 18.7 5 Sudoeste 12 Sur 0 1018.1 -0.1 71
2019-11-28 12:00:00 17.2 3 Sur 7 Sudeste 0 1018.6 0.8 79
2019-11-28 11:00:00 14.2 3 Nordeste 8 Norte 0 1018.7 1.5 94
2019-11-28 10:00:00 11.9 5 Nordeste 9 Nordeste 0 1018.2 1.7 100
2019-11-28 09:00:00 10.9 4 Norte 8 Nordeste 0 1017.8 1.6 100
2019-11-28 08:00:00 10.8 4 Norte 9 Nordeste 0 1017.2 1.1 100
2019-11-28 07:00:00 11.3 5 Nordeste 9 Nordeste 0 1016.5 0.5 99
2019-11-28 06:00:00 12.2 3 Nordeste 7 Oeste 0 1016.2 0.3 99
2019-11-28 05:00:00 12.5 3 Nordeste 6 Nordeste 0 1016.1 -0.1 98
2019-11-28 04:00:00 12.5 0 Calma 5 Nordeste 0 1016 -0.2 98
2019-11-28 03:00:00 12.9 4 Nordeste 9 Nordeste 0 1015.9 -0.4 99
2019-11-28 02:00:00 12.7 6 Nordeste 9 Nordeste 0 1016.2 0.1 99
2019-11-28 01:00:00 13.2 2 Sudeste 4 Nordeste 0 1016.2 0.2 97
2019-11-28 00:00:00 13.6 4 Sur 5 Sur 0 1016.3 0.6 96
2019-11-27 23:00:00 14 2 Este 4 Sudeste 0 1016.1 1.2 96
2019-11-27 22:00:00 14.4 4 Sudeste 11 Sudoeste 0 1016 1.4 94
2019-11-27 21:00:00 15.4 8 Oeste 16 Oeste 0 1015.7 1.5 91
2019-11-27 20:00:00 14.5 6 Sudoeste 14 Sudoeste 0 1014.9 1.3 94
2019-11-27 19:00:00 15.1 8 Sudoeste 12 Sudoeste 0 1014.6 1 89
2019-11-27 18:00:00 16.5 10 Sudoeste 17 Sudoeste 0 1014.2 0.2 79
2019-11-27 17:00:00 18.1 9 Sudoeste 18 Sudoeste 0 1013.6 -0.6 73
2019-11-27 16:00:00 17.7 10 Sudoeste 20 Sudoeste 0 1013.6 -1.3 76
2019-11-27 15:00:00 18.1 13 Sudoeste 17 Sudoeste 0 1014 -1.6 75
2019-11-27 14:00:00 18.6 7 Sudoeste 14 Sudoeste 0 1014.2 -1.4 77
2019-11-27 06:00:00 13.9 7 Oeste 14 Sudoeste 0 1012.7 0.2 98
2019-11-27 05:00:00 14.3 10 Oeste 17 Oeste 0 1012.6 -0.4 99
2019-11-27 04:00:00 13.5 3 Oeste 8 Sudoeste 0 1012.7 -0.6 98
2019-11-27 03:00:00 14.1 6 Sudoeste 10 Sudoeste 0 1012.5 -0.4 99
2019-11-27 02:00:00 14.5 2 Sudoeste 9 Sudoeste 0 1013 -0.1 96
2019-11-27 01:00:00 15.4 6 Sudoeste 13 Oeste 0 1013.3 0.5 94
2019-11-27 00:00:00 16.4 10 Oeste 20 Sudoeste 0 1012.9 0.5 95
2019-11-26 23:00:00 16.4 13 Sudoeste 30 Oeste 0.8 1013.1 0.6 96
2019-11-26 22:00:00 17 19 Sudoeste 35 Sudoeste 0.6 1012.8 0.1 95
2019-11-26 21:00:00 17.3 21 Sudoeste 34 Sudoeste 0 1012.4 0 91
2019-11-26 20:00:00 17.3 16 Sudoeste 27 Sudoeste 0 1012.5 0.1 92
2019-11-26 19:00:00 17.2 14 Sudoeste 32 Sur 0 1012.7 0.3 92
2019-11-26 18:00:00 17.8 16 Sudoeste 34 Sudoeste 0 1012.4 -0.6 89
2019-11-26 17:00:00 19 23 Sudoeste 35 Sudoeste 0 1012.4 -1 84
2019-11-26 16:00:00 19.5 23 Sudoeste 31 Sudoeste 0 1012.4 -1.8 82
2019-11-26 15:00:00 19 15 Sudoeste 28 Sudoeste 0 1013 -2.1 86
2019-11-26 14:00:00 18.5 12 Sur 23 Sudoeste 0 1013.4 -2 90
2019-11-26 13:00:00 18.6 13 Sudoeste 19 Oeste 0 1014.2 -0.9 89
2019-11-26 12:00:00 17.2 11 Sudoeste 19 Sudoeste 0 1015.1 0 97
2019-11-26 11:00:00 16.9 9 Sudoeste 14 Sudoeste 0 1015.4 0.7 99
2019-11-26 10:00:00 15.5 3 Sudeste 5 Sudeste 0 1015.1 0.4 100
2019-11-26 09:00:00 14.9 3 Nordeste 4 Este 0.2 1015.1 0.3 100
2019-11-26 08:00:00 14.4 3 Este 7 Este 0 1014.7 -0.2 100
2019-11-26 07:00:00 14.2 6 Este 9 Este 0 1014.7 -0.7 99
2019-11-26 06:00:00 14.5 4 Nordeste 6 Nordeste 0 1014.8 -0.7 99
2019-11-26 05:00:00 14.4 0 Calma 5 Sudeste 0 1014.9 -1 99
2019-11-26 04:00:00 14 3 Nordeste 6 Sudeste 0 1015.4 -1 98
2019-11-26 03:00:00 14.2 2 Sudeste 4 Sur 0 1015.5 -1.2 98
2019-11-26 02:00:00 14.3 3 Este 4 Sudeste 0 1015.9 -0.8 97
2019-11-26 01:00:00 14.2 2 Sudeste 7 Noroeste 0 1016.4 -0.1 97
2019-11-26 00:00:00 14.6 4 Noroeste 8 Noroeste 0 1016.7 0.5 96
2019-11-25 23:00:00 15.2 0 Calma 5 Sur 0 1016.7 1 95
2019-11-25 22:00:00 16.1 6 Sudeste 13 Oeste 0 1016.5 0.9 91
2019-11-25 21:00:00 16.5 6 Sudoeste 11 Sudoeste 0 1016.2 0.9 93
2019-11-25 20:00:00 17 5 Sudoeste 16 Sudoeste 0 1015.7 0.5 92
2019-11-25 19:00:00 17.1 8 Sudoeste 17 Sudoeste 0 1015.6 0.5 91
2019-11-25 18:00:00 17.8 12 Sudoeste 19 Sudoeste 0 1015.3 0.1 89
2019-11-25 17:00:00 17.9 14 Sudoeste 27 Oeste 0 1015.2 -0.5 92
2019-11-25 16:00:00 18.3 18 Sudoeste 29 Sudoeste 0 1015.1 -1.3 90
2019-11-25 15:00:00 18.6 21 Sudoeste 34 Sudoeste 0 1015.2 -1.7 87
2019-11-25 14:00:00 18.6 22 Sudoeste 32 Sudoeste 0 1015.7 -1.3 88
2019-11-25 13:00:00 18.1 17 Sudoeste 28 Sudoeste 0 1016.4 0 90
2019-11-25 12:00:00 17.4 15 Sudoeste 24 Sudoeste 0 1016.9 0.9 93
2019-11-25 11:00:00 16.9 14 Sudoeste 21 Sudoeste 0 1017 1 95
2019-11-25 10:00:00 16.6 11 Sudoeste 19 Sudoeste 0 1016.4 0.7 95
2019-11-25 09:00:00 15.9 10 Sudoeste 19 Sudoeste 0 1016 0.4 95
2019-11-25 08:00:00 15.6 13 Sudoeste 21 Sudoeste 0 1016 0.3 95
2019-11-25 07:00:00 15.8 13 Sudoeste 23 Sudoeste 0 1015.7 -0.6 93
2019-11-25 06:00:00 15.4 12 Sudoeste 19 Sudoeste 0 1015.6 -0.8 93
2019-11-25 05:00:00 14.8 10 Sudoeste 15 Sudoeste 0 1015.7 -1 93
2019-11-25 04:00:00 14.6 2 Sudoeste 7 Sudoeste 0 1016.3 -0.9 93
2019-11-25 03:00:00 14.6 2 Sudeste 8 Sudoeste 0 1016.4 -1 92
2019-11-25 02:00:00 15 5 Sudoeste 10 Sudoeste 0 1016.7 -0.6 90
2019-11-25 01:00:00 14.6 6 Sudoeste 10 Sudoeste 0 1017.2 0 90
2019-11-25 00:00:00 14.4 4 Sudoeste 12 Sudoeste 0 1017.4 0.5 88
2019-11-24 23:00:00 14.9 9 Sudoeste 15 Sudoeste 0 1017.3 0.5 84
2019-11-24 22:00:00 14.5 10 Oeste 23 Oeste 0 1017.2 0.6 86
2019-11-24 21:00:00 14.6 14 Sudoeste 21 Sudoeste 0 1016.9 0.7 86
2019-11-24 20:00:00 14.8 12 Sudoeste 17 Sudoeste 0 1016.8 0.8 85
2019-11-24 19:00:00 14.6 6 Sur 14 Sudoeste 0 1016.6 0.7 83
2019-11-24 18:00:00 15.4 11 Sudoeste 21 Oeste 0 1016.2 0 75
2019-11-24 17:00:00 16.4 17 Sudoeste 27 Oeste 0 1016 -0.7 69
2019-11-24 16:00:00 16.2 20 Sudoeste 30 Sudoeste 0 1015.9 -1.5 69
2019-11-24 15:00:00 17.3 20 Sudoeste 31 Sudoeste 0 1016.2 -2 61
2019-11-24 14:00:00 17.6 14 Sur 22 Sudoeste 0 1016.7 -1.5 59
2019-11-24 13:00:00 16.9 7 Sudoeste 12 Sudoeste 0 1017.4 -0.2 63
2019-11-24 12:00:00 15.1 4 Oeste 8 Oeste 0 1018.2 1.1 68
2019-11-24 11:00:00 13.2 3 Oeste 6 Sudeste 0 1018.2 1.4 74
2019-11-24 10:00:00 10.7 2 Sudoeste 4 Oeste 0 1017.6 1.5 90
2019-11-24 09:00:00 7.6 2 Nordeste 5 Nordeste 0 1017.1 1.4 95
2019-11-24 08:00:00 7.6 5 Noroeste 8 Noroeste 0 1016.8 1.6 94
2019-11-24 07:00:00 8.6 6 Noroeste 11 Noroeste 0 1016.1 1 93
2019-11-24 06:00:00 8.7 4 Noroeste 14 Oeste 0 1015.7 0.9 93
2019-11-24 05:00:00 8.6 8 Noroeste 15 Oeste 0 1015.2 0.5 92
2019-11-24 04:00:00 8.9 11 Oeste 14 Oeste 0 1015.1 0.4 90
2019-11-24 03:00:00 9 8 Oeste 10 Oeste 0 1014.8 0.5 89
2019-11-24 02:00:00 9.4 9 Oeste 12 Noroeste 0 1014.7 0 89
2019-11-24 01:00:00 9.6 9 Noroeste 15 Noroeste 0 1014.7 0.4 90
2019-11-24 00:00:00 10.3 12 Noroeste 15 Noroeste 0 1014.3 0.5 86
2019-11-23 23:00:00 10.9 12 Noroeste 20 Oeste 0 1014.7 1.8 82
2019-11-23 22:00:00 11.7 11 Oeste 18 Oeste 0 1014.3 2.3 76
2019-11-23 21:00:00 12.1 8 Noroeste 13 Noroeste 0 1013.8 3 74
2019-11-23 20:00:00 13.9 8 Noroeste 21 Noroeste 0 1012.9 2.7 67
2019-11-23 19:00:00 14.7 10 Noroeste 19 Noroeste 0 1012 2.4 62
2019-11-23 18:00:00 16.1 9 Noroeste 22 Noroeste 0 1010.8 1.5 62
2019-11-23 17:00:00 17.3 14 Noroeste 26 Noroeste 0 1010.2 0.7 56
2019-11-23 16:00:00 17.3 10 Noroeste 39 Noroeste 0 1009.6 -0.2 51
2019-11-23 15:00:00 17.8 23 Noroeste 40 Oeste 0 1009.3 -0.3 54
2019-11-23 14:00:00 16.8 16 Noroeste 34 Noroeste 0 1009.5 0.5 57
2019-11-23 13:00:00 16.4 17 Noroeste 34 Noroeste 0 1009.8 1.8 62
2019-11-23 12:00:00 16.4 22 Noroeste 32 Noroeste 0 1009.6 2.9 65
2019-11-23 11:00:00 15.2 22 Noroeste 33 Noroeste 0 1009 3.5 73
2019-11-23 10:00:00 13.8 18 Noroeste 27 Noroeste 0 1008 3.5 83
2019-11-23 09:00:00 12.5 18 Noroeste 31 Oeste 0 1006.7 2.7 86
2019-11-23 08:00:00 12.3 21 Oeste 29 Oeste 0 1005.5 2.1 87
2019-11-23 07:00:00 12.5 21 Oeste 30 Oeste 0 1004.5 2 90
2019-11-23 06:00:00 12.8 15 Oeste 23 Oeste 0 1004 2.2 90
2019-11-23 05:00:00 13.1 18 Oeste 48 Oeste 0.4 1003.4 1.6 87
2019-11-23 04:00:00 14.3 26 Oeste 40 Oeste 0 1002.5 1 78
2019-11-23 03:00:00 13.9 16 Oeste 29 Oeste 0 1001.8 0.4 81
2019-11-23 02:00:00 14.3 13 Oeste 31 Oeste 0 1001.8 0.7 80
2019-11-23 01:00:00 14.7 18 Oeste 28 Oeste 0 1001.5 0.8 79
2019-11-23 00:00:00 14.6 17 Oeste 26 Oeste 0 1001.4 1.5 83
2019-11-22 23:00:00 14.9 14 Oeste 24 Oeste 0 1001.1 1.7 83
2019-11-22 22:00:00 14.6 15 Oeste 23 Sudoeste 0 1000.7 2.1 84
2019-11-22 21:00:00 15.1 18 Oeste 30 Oeste 0 999.9 2 84
2019-11-22 20:00:00 15.6 17 Oeste 29 Oeste 0 999.4 3.1 86
2019-11-22 19:00:00 15.7 14 Oeste 35 Oeste 0 998.6 2.5 85
2019-11-22 18:00:00 16.2 19 Oeste 46 Oeste 5.2 997.9 1.5 86
2019-11-22 17:00:00 17.1 33 Sudoeste 57 Sudoeste 1.2 996.3 -1 95
2019-11-22 16:00:00 17.7 36 Sudoeste 62 Oeste 0 996.1 -2.8 90
2019-11-22 15:00:00 18 34 Sudoeste 58 Oeste 0 996.4 -3.7 91
2019-11-22 14:00:00 17.7 29 Sudoeste 46 Sudoeste 0 997.3 -3.6 93
2019-11-22 13:00:00 17 26 Sudoeste 40 Sudoeste 0 998.9 -2.3 95
2019-11-22 12:00:00 16.9 23 Sudoeste 41 Sudoeste 0.4 1000.1 -1.1 96
2019-11-22 11:00:00 16.4 20 Sudoeste 37 Sudoeste 1.4 1000.9 -0.9 97
2019-11-22 10:00:00 16 17 Sudoeste 26 Sudoeste 1.6 1001.2 -1.5 99
2019-11-22 09:00:00 15.1 12 Sudoeste 19 Sur 0 1001.2 -2.3 100
2019-11-22 08:00:00 13.9 6 Sur 10 Sur 0 1001.8 -2 100
2019-11-22 07:00:00 13.6 3 Este 10 Este 0 1002.7 -1.9 100
2019-11-22 06:00:00 13.6 4 Nordeste 10 Nordeste 0.2 1003.5 -1.5 100
2019-11-22 05:00:00 13.3 5 Nordeste 10 Nordeste 0 1003.8 -1.4 100
2019-11-22 04:00:00 13.1 5 Nordeste 8 Nordeste 0 1004.6 -0.9 100
2019-11-22 03:00:00 13.2 2 Norte 10 Noroeste 0 1005 -1 99
2019-11-22 02:00:00 13.5 5 Oeste 9 Oeste 0 1005.2 -1.1 99
2019-11-22 01:00:00 13.2 2 Nordeste 5 Sudeste 0 1005.5 -1 99
2019-11-22 00:00:00 13.5 2 Norte 6 Noroeste 0 1006 -0.8 99
2019-11-21 23:00:00 13.2 0 Calma 10 Sudoeste 0 1006.3 -0.4 96
2019-11-21 22:00:00 13.8 6 Sudoeste 14 Sudoeste 0 1006.5 0.5 96
2019-11-21 21:00:00 13.4 6 Sudoeste 11 Sudoeste 0 1006.8 1.1 96
2019-11-21 20:00:00 13.8 5 Sudoeste 8 Sudoeste 0 1006.7 1.1 91
2019-11-21 19:00:00 14.5 6 Sur 9 Sudoeste 0 1006 0.2 91
2019-11-21 18:00:00 15.4 8 Sudoeste 10 Sur 0 1005.7 -0.1 89
2019-11-21 17:00:00 15.6 7 Sur 12 Sudoeste 0 1005.6 -0.8 92
2019-11-21 16:00:00 15.5 8 Oeste 21 Sudoeste 3.8 1005.8 -1.1 91
2019-11-21 15:00:00 17.1 7 Sudoeste 14 Sudoeste 0.2 1005.8 -1.8 88
2019-11-21 14:00:00 16.6 9 Sudoeste 16 Sudoeste 0 1006.4 -1.2 89
2019-11-21 13:00:00 16.5 10 Sudoeste 18 Sudoeste 0 1006.9 -0.5 93
2019-11-21 12:00:00 14.9 4 Sur 16 Noroeste 0.8 1007.6 0.1 98
2019-11-21 11:00:00 13.5 7 Nordeste 17 Oeste 1.8 1007.6 0.2 98
2019-11-21 10:00:00 12.3 5 Este 13 Nordeste 0 1007.4 0.2 99
2019-11-21 09:00:00 11.5 7 Nordeste 12 Nordeste 0.2 1007.5 0.3 99
2019-11-21 08:00:00 -- -- -- -- -- -- -- -- --
2019-11-21 07:00:00 -- -- -- -- -- -- -- -- --
2019-11-21 06:00:00 -- -- -- -- -- -- -- -- --
2019-11-21 05:00:00 -- -- -- -- -- -- -- -- --
2019-11-21 04:00:00 -- -- -- -- -- -- -- -- --
2019-11-21 03:00:00 -- -- -- -- -- -- -- -- --
2019-11-21 02:00:00 -- -- -- -- -- -- -- -- --
2019-11-21 01:00:00 -- -- -- -- -- -- -- -- --
2019-11-21 00:00:00 -- -- -- -- -- -- -- -- --
2019-11-20 23:00:00 -- -- -- -- -- -- -- -- --
2019-11-20 22:00:00 12.9 4 Sudeste 7 Noroeste 0 1008.7 1.3 92
2019-11-20 21:00:00 13.4 4 Norte 17 Noroeste 1 1008.4 1 89
2019-11-20 20:00:00 14 7 Sudoeste 13 Oeste 0 1007.9 0.6 87
2019-11-20 19:00:00 13.8 8 Sur 10 Sur 0 1007.4 0.4 87
2019-11-20 18:00:00 15.3 7 Sur 12 Sur 0 1007.4 0.6 84
2019-11-20 17:00:00 15.3 8 Sudeste 14 Este 0 1007.3 0 80
2019-11-20 16:00:00 15.8 7 Nordeste 17 Nordeste 0 1007 -1 79
2019-11-20 15:00:00 15.7 4 Nordeste 14 Norte 0 1006.8 -1.8 84
2019-11-20 14:00:00 14.3 7 Norte 14 Norte 0 1007.3 -2.1 92
2019-11-20 13:00:00 12 5 Este 23 Sudeste 0 1008 -1.6 96
2019-11-20 12:00:00 10.5 10 Nordeste 18 Nordeste 4 1008.6 -1.2 96
2019-11-20 11:00:00 10.1 10 Este 15 Este 1.4 1009.4 0.1 94
2019-11-20 10:00:00 10 9 Este 17 Este 0.2 1009.6 -0.5 91
2019-11-20 09:00:00 9.9 6 Nordeste 20 Este 0 1009.8 -0.4 89
2019-11-20 08:00:00 9.8 8 Este 17 Este 0 1009.3 -1.2 92
2019-11-20 07:00:00 9.6 7 Este 12 Sudeste 0 1010.1 -1 93
2019-11-20 06:00:00 8.3 5 Nordeste 9 Nordeste 0 1010.2 -1.5 90
2019-11-20 05:00:00 8.1 5 Nordeste 12 Nordeste 0 1010.5 -1.8 84
2019-11-20 04:00:00 7.7 9 Nordeste 14 Nordeste 0 1011.1 -1.7 84
2019-11-20 03:00:00 7.7 9 Nordeste 13 Nordeste 0 1011.7 -1.6 83
2019-11-20 02:00:00 7.9 7 Nordeste 12 Nordeste 0 1012.3 -1.1 86
2019-11-20 01:00:00 8.5 4 Nordeste 5 Nordeste 0 1012.8 -0.5 83
2019-11-20 00:00:00 9.8 3 Nordeste 6 Este 0 1013.3 -0.4 86
2019-11-19 23:00:00 10.7 5 Nordeste 8 Nordeste 0 1013.4 -0.6 85
2019-11-19 22:00:00 11 5 Nordeste 8 Oeste 0 1013.3 -0.5 81
2019-11-19 21:00:00 12.3 8 Oeste 14 Oeste 0 1013.7 0 75
2019-11-19 20:00:00 12.8 12 Oeste 17 Oeste 0 1014 0.4 75
2019-11-19 19:00:00 13.1 9 Sudoeste 17 Oeste 0 1013.8 -0.3 70
2019-11-19 18:00:00 15.1 12 Sudoeste 18 Sudoeste 0 1013.7 -0.6 51
2019-11-19 17:00:00 16.5 11 Sudoeste 15 Sudoeste 0 1013.6 -1.3 48
2019-11-19 16:00:00 16.3 13 Sudoeste 19 Oeste 0 1014.1 -1.8 48
2019-11-19 15:00:00 17.2 6 Sur 13 Sur 0 1014.3 -2.8 44
2019-11-19 14:00:00 17.2 4 Este 12 Nordeste 0 1014.9 -2.5 43
2019-11-19 13:00:00 15.9 5 Norte 12 Norte 0 1015.9 -1.6 49
2019-11-19 12:00:00 13.9 3 Norte 10 Nordeste 0 1017.1 -0.2 57
2019-11-19 11:00:00 11.2 6 Nordeste 13 Nordeste 0 1017.4 0.3 65
2019-11-19 10:00:00 8.2 4 Nordeste 8 Nordeste 0 1017.5 1 77
2019-11-19 09:00:00 6.3 5 Nordeste 10 Nordeste 0 1017.3 0.9 81
2019-11-19 08:00:00 5.3 6 Norte 10 Norte 0 1017.1 0.9 86
2019-11-19 07:00:00 4.7 3 Norte 9 Este 0 1016.5 0.3 90
2019-11-19 06:00:00 5.7 4 Nordeste 11 Norte 0 1016.4 0.2 83
2019-11-19 05:00:00 7.3 7 Norte 17 Norte 0 1016.2 -0.1 82
2019-11-19 04:00:00 8.6 7 Norte 20 Norte 0 1016.2 -0.6 78
2019-11-19 03:00:00 9 11 Noroeste 19 Noroeste 0 1016.2 -0.8 76
2019-11-19 02:00:00 8.7 10 Noroeste 13 Noroeste 0 1016.3 -0.7 75
2019-11-19 01:00:00 9.5 3 Noroeste 7 Norte 0 1016.8 0 71
2019-11-19 00:00:00 9.8 3 Noroeste 8 Nordeste 0 1017 0.6 69
2019-11-18 23:00:00 10.4 5 Nordeste 13 Norte 0 1017 1 67
2019-11-18 22:00:00 12.6 5 Norte 20 Norte 0 1016.8 1.7 59
2019-11-18 21:00:00 12.1 7 Noroeste 18 Noroeste 0 1016.4 1.8 60
2019-11-18 20:00:00 12.7 9 Noroeste 17 Oeste 0 1016 1.6 57
2019-11-18 19:00:00 14.6 5 Norte 22 Oeste 0 1015.1 0.9 50
2019-11-18 18:00:00 16.3 8 Noroeste 26 Nordeste 0 1014.6 0.4 44
2019-11-18 17:00:00 17.5 13 Noroeste 29 Oeste 0 1014.4 0 41
2019-11-18 16:00:00 17.8 11 Norte 33 Noroeste 0 1014.2 -0.9 41
2019-11-18 15:00:00 17.7 16 Noroeste 32 Noroeste 0 1014.2 -1.2 44
2019-11-18 14:00:00 16.6 11 Noroeste 27 Noroeste 0 1014.4 -1.4 50
2019-11-18 13:00:00 15.4 11 Noroeste 33 Nordeste 0 1015.1 -0.4 55
2019-11-18 12:00:00 14 14 Norte 39 Norte 0 1015.4 0.7 61
2019-11-18 11:00:00 12.5 18 Norte 34 Norte 0 1015.8 1.9 67
2019-11-18 10:00:00 11.4 7 Noroeste 28 Noroeste 0 1015.5 2.4 76
2019-11-18 09:00:00 9.5 13 Noroeste 27 Noroeste 0 1014.7 2 85
2019-11-18 08:00:00 9.2 9 Noroeste 32 Oeste 0 1013.9 1.5 84
2019-11-18 07:00:00 9.5 11 Noroeste 38 Noroeste 0 1013.1 0.9 82
2019-11-18 06:00:00 9.8 11 Noroeste 33 Noroeste 0 1012.7 0.5 80
2019-11-18 05:00:00 10.6 16 Noroeste 37 Noroeste 0 1012.4 0.5 75
2019-11-18 04:00:00 11.2 21 Noroeste 41 Noroeste 0 1012.2 1.2 68
2019-11-18 03:00:00 12.6 20 Noroeste 35 Noroeste 0 1012.2 0.6 63
2019-11-18 02:00:00 14.3 17 Noroeste 54 Noroeste 0 1011.9 -0.6 71
2019-11-18 01:00:00 15.6 31 Sudoeste 42 Oeste 0 1011 -2.1 87
2019-11-18 00:00:00 15.2 21 Sudoeste 33 Sudoeste 0 1011.6 -1.9 88
2019-11-17 23:00:00 15.3 16 Sudoeste 27 Sudoeste 0 1012.5 -1.3 85
2019-11-17 22:00:00 15.5 16 Sudoeste 23 Oeste 0 1013.1 -0.6 80
2019-11-17 21:00:00 15.4 13 Oeste 20 Oeste 0 1013.5 -0.4 79
2019-11-17 20:00:00 16.6 16 Oeste 28 Oeste 0 1013.8 -0.1 71
2019-11-17 19:00:00 17.2 19 Oeste 35 Oeste 0 1013.7 -0.5 68
2019-11-17 18:00:00 16.4 18 Sudoeste 32 Sudoeste 0 1013.9 -0.9 81
2019-11-17 17:00:00 17.4 22 Sudoeste 37 Sudoeste 0 1013.9 -2.2 77
2019-11-17 16:00:00 17.8 24 Sudoeste 39 Sudoeste 0 1014.2 -2.7 75
2019-11-17 15:00:00 18.9 20 Sudoeste 30 Sudoeste 0 1014.8 -3.2 72
2019-11-17 14:00:00 18.3 15 Sudoeste 23 Sudoeste 0 1016.1 -2.3 68
2019-11-17 13:00:00 17.1 8 Sudoeste 14 Sudoeste 0 1016.9 -1.2 75
2019-11-17 12:00:00 13 3 Sur 9 Nordeste 0 1018 0.1 91
2019-11-17 11:00:00 9.2 8 Nordeste 12 Nordeste 0 1018.4 0.6 97
2019-11-17 10:00:00 8.2 8 Nordeste 12 Norte 0.2 1018.1 0.3 96
2019-11-17 09:00:00 6.9 5 Nordeste 11 Nordeste 0 1017.9 0.4 94
2019-11-17 08:00:00 6.3 6 Nordeste 9 Nordeste 0.4 1017.8 -0.1 93
2019-11-17 07:00:00 7 6 Nordeste 10 Nordeste 0 1017.8 -0.3 75
2019-11-17 06:00:00 7.4 3 Nordeste 4 Norte 0 1017.5 -0.9 74
2019-11-17 05:00:00 7.4 0 Calma 5 Este 0 1017.9 -0.6 79
2019-11-17 04:00:00 6.2 2 Este 10 Noroeste 0 1018.1 -0.5 75
2019-11-17 03:00:00 7.4 7 Noroeste 10 Noroeste 0 1018.4 -0.2 78
2019-11-17 02:00:00 7.3 7 Noroeste 15 Noroeste 0 1018.5 0 73
2019-11-17 01:00:00 7.8 11 Noroeste 14 Noroeste 0 1018.6 0.4 68
2019-11-17 00:00:00 8.8 9 Noroeste 14 Noroeste 0 1018.6 0.7 61
2019-11-16 23:00:00 9.2 9 Noroeste 15 Oeste 0 1018.5 1 57
2019-11-16 22:00:00 9.4 8 Noroeste 14 Noroeste 0 1018.2 1.1 57
2019-11-16 21:00:00 10.3 10 Noroeste 14 Noroeste 0 1017.9 1.2 55
2019-11-16 20:00:00 11.2 9 Oeste 14 Oeste 0 1017.5 1.3 56
2019-11-16 19:00:00 12.5 11 Oeste 19 Sudoeste 0 1017.1 1.1 57
2019-11-16 18:00:00 15.6 11 Oeste 27 Noroeste 0 1016.7 0.7 34
2019-11-16 17:00:00 16.8 16 Noroeste 30 Oeste 0 1016.2 0.3 32
2019-11-16 16:00:00 17 17 Oeste 30 Noroeste 0 1016 -0.1 33
2019-11-16 15:00:00 16.2 12 Noroeste 25 Noroeste 0 1016 -0.8 34
2019-11-16 14:00:00 15.3 13 Noroeste 28 Oeste 0 1015.9 -0.7 39
2019-11-16 13:00:00 14.5 11 Noroeste 24 Norte 0 1016.1 0.2 42
2019-11-16 12:00:00 12.3 9 Noroeste 24 Oeste 0 1016.8 1.8 53
2019-11-16 11:00:00 10.3 9 Noroeste 18 Noroeste 0 1016.6 2.7 62
2019-11-16 10:00:00 7.5 8 Noroeste 21 Oeste 0 1015.9 2.9 76
2019-11-16 09:00:00 5.3 10 Noroeste 34 Noroeste 0 1015 2.8 83
2019-11-16 08:00:00 5 8 Noroeste 23 Norte 0 1013.9 2.1 84
2019-11-16 07:00:00 5.1 12 Noroeste 26 Noroeste 0 1013 1.7 84
2019-11-16 06:00:00 5.5 11 Noroeste 25 Noroeste 0 1012.2 1.2 83
2019-11-16 05:00:00 5.6 12 Noroeste 22 Noroeste 0 1011.8 0.9 82
2019-11-16 04:00:00 5.9 9 Noroeste 28 Noroeste 0 1011.3 0.7 80
2019-11-16 03:00:00 6.2 10 Noroeste 24 Noroeste 0 1011 0.7 78
2019-11-16 02:00:00 6.9 5 Noroeste 21 Noroeste 0 1010.9 0.7 74
2019-11-16 01:00:00 6.9 11 Noroeste 17 Oeste 0 1010.6 0.8 70
2019-11-16 00:00:00 7.7 15 Noroeste 22 Noroeste 0 1010.3 1.4 65
2019-11-15 23:00:00 8.3 13 Oeste 23 Oeste 0 1010.2 1.4 61
2019-11-15 22:00:00 9.2 13 Noroeste 23 Noroeste 0 1009.8 1.5 56
2019-11-15 21:00:00 8.9 10 Noroeste 17 Noroeste 0 1008.9 1.2 57
2019-11-15 20:00:00 9.8 6 Noroeste 14 Noroeste 0 1008.8 1.5 54
2019-11-15 19:00:00 11.8 9 Oeste 33 Noroeste 0 1008.3 1.3 43
2019-11-15 18:00:00 13.7 23 Noroeste 42 Noroeste 0 1007.7 0.4 40
2019-11-15 17:00:00 15.1 23 Noroeste 44 Noroeste 0 1007.3 -0.5 35
2019-11-15 16:00:00 15.8 27 Noroeste 48 Noroeste 0 1007 -1.4 33
2019-11-15 15:00:00 15.8 27 Noroeste 51 Noroeste 0 1007.3 -2 35
2019-11-15 14:00:00 14.5 19 Noroeste 42 Noroeste 0 1007.8 -1.7 41
2019-11-15 13:00:00 13.9 22 Noroeste 47 Noroeste 0 1008.4 -1.3 40
2019-11-15 12:00:00 13.4 20 Noroeste 44 Noroeste 0 1009.3 -0.1 45
2019-11-15 11:00:00 12 20 Noroeste 39 Noroeste 0 1009.5 0.8 54
2019-11-15 10:00:00 10.5 21 Noroeste 37 Noroeste 0 1009.7 1.2 65
2019-11-15 09:00:00 8.8 14 Oeste 22 Noroeste 0 1009.4 0.9 74
2019-11-15 08:00:00 7.8 16 Oeste 24 Oeste 0 1008.7 0.1 79
2019-11-15 07:00:00 8.5 18 Oeste 29 Oeste 0 1008.5 -0.3 76
2019-11-15 06:00:00 8.4 12 Oeste 26 Oeste 0 1008.5 -0.8 78
2019-11-15 05:00:00 8.5 17 Oeste 25 Oeste 0 1008.6 -1 79
2019-11-15 04:00:00 8.6 14 Oeste 24 Oeste 0 1008.8 -0.8 79
2019-11-15 03:00:00 8.9 15 Oeste 25 Noroeste 0 1009.3 -0.7 81
2019-11-15 02:00:00 9.1 17 Oeste 24 Oeste 0 1009.6 -0.5 83
2019-11-15 01:00:00 9.9 16 Oeste 23 Oeste 0 1009.6 -0.2 79
2019-11-15 00:00:00 10.5 19 Noroeste 32 Noroeste 0 1010 0.4 75
2019-11-14 23:00:00 11.1 18 Oeste 26 Oeste 0 1010.1 0.6 73
2019-11-14 22:00:00 11.4 21 Oeste 29 Oeste 0 1009.8 0.5 71
2019-11-14 21:00:00 11.5 19 Oeste 31 Oeste 0 1009.6 0.5 70
2019-11-14 20:00:00 12 18 Oeste 25 Noroeste 0 1009.5 0.9 68
2019-11-14 19:00:00 12.2 15 Oeste 35 Noroeste 0 1009.3 0.5 67
2019-11-14 18:00:00 13.5 23 Noroeste 34 Noroeste 0 1009.1 0.2 59
2019-11-14 17:00:00 13.7 20 Oeste 34 Oeste 0 1008.6 -0.6 65
2019-11-14 16:00:00 13.3 17 Noroeste 45 Oeste 0 1008.8 -1.6 70
2019-11-14 15:00:00 16 26 Noroeste 46 Noroeste 0 1008.9 -1.7 52
2019-11-14 14:00:00 16.1 22 Noroeste 48 Noroeste 0.2 1009.2 -1.3 55
2019-11-14 13:00:00 14.1 29 Noroeste 45 Noroeste 0 1010.4 -0.3 79
2019-11-14 12:00:00 15.5 27 Noroeste 47 Noroeste 0 1010.6 -0.2 63
2019-11-14 11:00:00 15.8 24 Oeste 38 Oeste 0 1010.5 -0.3 73
2019-11-14 10:00:00 15.1 19 Oeste 28 Oeste 0 1010.7 -0.8 75
2019-11-14 09:00:00 14.2 17 Oeste 27 Oeste 0 1010.8 -0.8 80
2019-11-14 08:00:00 13.3 16 Oeste 30 Oeste 0 1010.8 -1.2 77
2019-11-14 07:00:00 13.5 22 Oeste 28 Oeste 0 1011.5 -1 75
2019-11-14 06:00:00 12.6 15 Oeste 21 Sudoeste 0 1011.6 -1.9 77
2019-11-14 05:00:00 11.6 12 Oeste 17 Oeste 0 1012 -2 82
2019-11-14 04:00:00 11 9 Oeste 14 Oeste 0 1012.5 -2 85
2019-11-14 03:00:00 11.4 9 Oeste 23 Oeste 0 1013.5 -0.9 83
2019-11-14 02:00:00 12.4 13 Oeste 21 Oeste 0 1014 -0.5 83
2019-11-14 01:00:00 13.2 14 Oeste 24 Oeste 0 1014.5 -0.4 86
2019-11-14 00:00:00 13.9 16 Oeste 23 Oeste 0 1014.4 0.5 86
2019-11-13 23:00:00 15 16 Oeste 24 Noroeste 0 1014.5 0.7 80
2019-11-13 22:00:00 15.6 19 Noroeste 32 Oeste 0 1014.9 1.1 72
2019-11-13 21:00:00 16.3 10 Oeste 16 Oeste 0 1013.9 0.3 66
2019-11-13 20:00:00 17.1 6 Oeste 10 Noroeste 0 1013.8 0.5 63
2019-11-13 19:00:00 18.8 7 Noroeste 21 Noroeste 0 1013.8 1.1 56
2019-11-13 18:00:00 20.9 11 Noroeste 26 Noroeste 0 1013.6 0.5 50
2019-11-13 17:00:00 22.2 14 Noroeste 32 Noroeste 0 1013.3 -0.3 48
2019-11-13 16:00:00 22.6 17 Noroeste 32 Noroeste 0 1012.7 -1.4 45
2019-11-13 15:00:00 23.3 18 Noroeste 37 Oeste 0 1013.1 -1.2 42
2019-11-13 14:00:00 21.7 13 Noroeste 39 Noroeste 0 1013.6 -1 46
2019-11-13 13:00:00 22.1 23 Noroeste 39 Oeste 0 1014.1 -0.1 52
2019-11-13 12:00:00 19.7 19 Oeste 37 Oeste 0 1014.3 0.9 66
2019-11-13 11:00:00 18.4 19 Oeste 35 Oeste 0 1014.6 1.2 72
2019-11-13 10:00:00 17.4 14 Sudoeste 22 Oeste 0 1014.2 1 81
2019-11-13 09:00:00 15.5 15 Sudoeste 23 Sudoeste 0 1013.4 0.3 88
2019-11-13 08:00:00 15.3 15 Sudoeste 23 Sudoeste 0 1013.4 -0.1 89
2019-11-13 07:00:00 14.8 18 Sudoeste 26 Sudoeste 0 1013.2 -0.3 91
2019-11-13 06:00:00 14.3 17 Sudoeste 24 Sudoeste 0 1013.1 -1.1 90
2019-11-13 05:00:00 14.7 16 Oeste 24 Oeste 0 1013.5 -1.1 86
2019-11-13 04:00:00 14.8 15 Sudoeste 24 Sudoeste 0 1013.5 -1.8 82
2019-11-13 03:00:00 14.4 19 Sudoeste 26 Oeste 0 1014.2 -1.2 83
2019-11-13 02:00:00 14.8 18 Sudoeste 25 Oeste 0 1014.6 -1 76
2019-11-13 01:00:00 14.5 14 Oeste 21 Oeste 0 1015.3 -0.4 75
2019-11-13 00:00:00 14.4 16 Oeste 23 Oeste 0 1015.4 -0.1 72
2019-11-12 23:00:00 14.1 16 Oeste 23 Oeste 0 1015.6 0.2 72
2019-11-12 22:00:00 14 9 Noroeste 20 Noroeste 0 1015.7 0.8 72
2019-11-12 21:00:00 14.4 15 Noroeste 28 Noroeste 0 1015.5 0.9 69
2019-11-12 20:00:00 15.3 15 Noroeste 28 Noroeste 0 1015.4 1.2 64
2019-11-12 19:00:00 16.8 13 Noroeste 25 Noroeste 0 1014.9 0.2 54
2019-11-12 18:00:00 19.1 8 Norte 37 Norte 0 1014.6 -0.4 41
2019-11-12 17:00:00 20 14 Noroeste 37 Nordeste 0 1014.2 -1.4 36
2019-11-12 16:00:00 20 18 Noroeste 33 Norte 0 1014.7 -1.4 34
2019-11-12 15:00:00 19.6 13 Norte 37 Norte 0 1015 -1.8 36
2019-11-12 14:00:00 19 12 Norte 35 Noroeste 0 1015.6 -1.3 40
2019-11-12 13:00:00 18.3 12 Noroeste 30 Noroeste 0 1016.1 -0.9 47
2019-11-12 12:00:00 16.5 9 Noroeste 22 Noroeste 0 1016.8 0.8 62
2019-11-12 11:00:00 14.3 11 Noroeste 21 Noroeste 0 1016.9 1.4 71
2019-11-12 10:00:00 12.3 15 Noroeste 25 Noroeste 0 1017 1.8 84
2019-11-12 09:00:00 10.3 19 Noroeste 26 Noroeste 0 1016 0.7 90
2019-11-12 08:00:00 9.9 18 Noroeste 26 Noroeste 0 1015.5 0.7 91
2019-11-12 07:00:00 10.1 12 Noroeste 21 Noroeste 0 1015.2 -0.1 91
2019-11-12 06:00:00 10.4 12 Noroeste 26 Noroeste 0 1015.3 -0.3 90
2019-11-12 05:00:00 10.9 16 Noroeste 30 Noroeste 0 1014.8 -0.8 88
2019-11-12 04:00:00 11.5 14 Noroeste 31 Noroeste 0 1015.3 -0.2 85
2019-11-12 03:00:00 12.2 14 Oeste 32 Noroeste 0 1015.6 -0.3 82
2019-11-12 02:00:00 12.7 14 Noroeste 32 Oeste 0 1015.6 -0.5 80
2019-11-12 01:00:00 13.1 12 Noroeste 38 Noroeste 0 1015.5 -0.6 78
2019-11-12 00:00:00 13.3 15 Noroeste 29 Noroeste 0 1015.9 0.7 78
2019-11-11 23:00:00 14.7 11 Noroeste 25 Oeste 0 1016.1 1.1 72
2019-11-11 22:00:00 15.8 10 Noroeste 24 Noroeste 0 1016.1 1.4 74
2019-11-11 21:00:00 17.1 12 Noroeste 27 Noroeste 0 1015.2 0.5 73
2019-11-11 20:00:00 16.5 8 Sudoeste 16 Sudoeste 0 1015 0.5 85
2019-11-11 19:00:00 17.5 3 Sur 18 Noroeste 0 1014.7 -0.3 81
2019-11-11 18:00:00 19 8 Noroeste 26 Noroeste 0 1014.7 -0.6 77
2019-11-11 17:00:00 19.8 13 Noroeste 33 Noroeste 0 1014.5 -1.7 74
2019-11-11 16:00:00 19.9 15 Noroeste 31 Noroeste 0 1015 -1.7 71
2019-11-11 15:00:00 20.1 11 Noroeste 29 Noroeste 0 1015.3 -1.9 70
2019-11-11 14:00:00 19.5 10 Noroeste 31 Noroeste 0 1016.2 -2 73
2019-11-11 13:00:00 18.9 14 Noroeste 24 Noroeste 0 1016.7 -1.7 80
2019-11-11 12:00:00 17.5 13 Noroeste 19 Noroeste 0 1017.2 -1.3 91
2019-11-11 11:00:00 16.6 9 Noroeste 17 Oeste 0 1018.2 0.2 92
2019-11-11 10:00:00 15.4 9 Oeste 13 Oeste 0 1018.4 0.2 95
2019-11-11 09:00:00 14.1 2 Sudeste 8 Sur 0 1018.5 0.6 96
2019-11-11 08:00:00 13.8 5 Sur 8 Sur 0.4 1018 -0.2 97
2019-11-11 07:00:00 13.6 4 Sur 6 Sur 0 1018.2 -0.4 96
2019-11-11 06:00:00 13.6 0 Calma 7 Oeste 0 1017.9 -1.8 94
2019-11-11 05:00:00 13.3 4 Sur 8 Sudoeste 0.2 1018.2 -1.9 95
2019-11-11 04:00:00 13.1 5 Sudoeste 10 Sudoeste 0.4 1018.6 -1.8 95
2019-11-11 03:00:00 12.9 6 Oeste 12 Oeste 0.8 1019.7 -1.3 94
2019-11-11 02:00:00 13.2 9 Oeste 19 Noroeste 0 1020.1 -0.8 90
2019-11-11 01:00:00 14.1 9 Noroeste 29 Noroeste 0 1020.4 0 76
2019-11-11 00:00:00 14.4 18 Noroeste 36 Oeste 0 1021 0.3 73
2019-11-10 23:00:00 14 15 Oeste 24 Oeste 0 1020.9 -0.1 75
2019-11-10 22:00:00 13.8 17 Oeste 24 Oeste 0 1020.4 0.1 75
2019-11-10 21:00:00 14.4 7 Noroeste 27 Noroeste 0 1020.7 0.7 68
2019-11-10 20:00:00 15.6 12 Norte 42 Norte 0 1021 1 60
2019-11-10 19:00:00 16.7 9 Norte 43 Norte 0 1020.3 1.1 51
2019-11-10 18:00:00 17.2 11 Noroeste 41 Nordeste 0 1020 0.9 48
2019-11-10 17:00:00 17.6 14 Norte 48 Oeste 0 1020 0.3 49
2019-11-10 16:00:00 18.8 17 Noroeste 46 Noroeste 0 1019.2 -1.4 42
2019-11-10 15:00:00 18.9 19 Noroeste 50 Noroeste 0 1019.1 -2.2 38
2019-11-10 14:00:00 18.1 20 Norte 49 Norte 0 1019.7 -1.5 37
2019-11-10 13:00:00 17.6 10 Norte 35 Nordeste 0 1020.6 -0.8 42
2019-11-10 12:00:00 17 12 Norte 39 Oeste 0 1021.3 0.3 45
2019-11-10 11:00:00 15.6 15 Noroeste 33 Oeste 0 1021.2 1.2 53
2019-11-10 10:00:00 14.1 17 Noroeste 27 Noroeste 0 1021.4 2.2 67
2019-11-10 09:00:00 12.8 14 Noroeste 27 Noroeste 0 1021 1.8 74
2019-11-10 08:00:00 12.8 15 Noroeste 36 Noroeste 0 1020 0.7 72
2019-11-10 07:00:00 13 20 Noroeste 38 Noroeste 0 1019.2 -0.2 73
2019-11-10 06:00:00 13 18 Noroeste 35 Noroeste 0 1019.2 -0.3 77
2019-11-10 05:00:00 13.3 18 Noroeste 39 Noroeste 0 1019.3 -0.4 75
2019-11-10 04:00:00 13.4 16 Noroeste 39 Noroeste 0 1019.4 -0.8 74
2019-11-10 03:00:00 13.7 21 Noroeste 45 Noroeste 0 1019.5 -0.4 69
2019-11-10 02:00:00 14.1 18 Noroeste 41 Noroeste 0 1019.7 -0.3 65
2019-11-10 01:00:00 15.3 13 Noroeste 39 Oeste 0 1020.2 0.3 58
2019-11-10 00:00:00 16.4 15 Noroeste 23 Noroeste 0 1019.9 -0.1 77
2019-11-09 23:00:00 16.4 15 Oeste 27 Oeste 0 1020 -0.7 76
2019-11-09 22:00:00 16.7 12 Sudoeste 19 Oeste 0 1019.9 -0.8 72
2019-11-09 21:00:00 16.4 10 Oeste 15 Oeste 0 1020 -0.4 71
2019-11-09 20:00:00 16.3 12 Sudoeste 25 Sudoeste 0 1020.7 0.3 73
2019-11-09 19:00:00 15.9 18 Oeste 27 Oeste 0 1020.7 -0.1 71
2019-11-09 18:00:00 16.9 15 Sudoeste 24 Noroeste 0 1020.4 -0.9 62
2019-11-09 17:00:00 19.2 14 Noroeste 30 Oeste 0 1020.4 -1.4 48
2019-11-09 16:00:00 19.7 17 Noroeste 36 Noroeste 0 1020.8 -2.3 42
2019-11-09 15:00:00 19.5 18 Noroeste 32 Noroeste 0 1021.3 -2.2 42
2019-11-09 14:00:00 18.3 8 Norte 30 Noroeste 0 1021.8 -2.2 44
2019-11-09 13:00:00 17.2 13 Norte 28 Noroeste 0 1023.1 -0.8 44
2019-11-09 12:00:00 16.1 8 Norte 26 Norte 0 1023.5 -0.3 48
2019-11-09 11:00:00 13.9 12 Noroeste 18 Noroeste 0 1024 0.8 58
2019-11-09 10:00:00 10.9 11 Noroeste 18 Noroeste 0 1023.9 1.4 71
2019-11-09 09:00:00 8 10 Noroeste 22 Noroeste 0 1023.8 2 79
2019-11-09 08:00:00 7.9 11 Noroeste 19 Oeste 0 1023.2 1.3 79
2019-11-09 07:00:00 8.4 6 Noroeste 17 Oeste 0 1022.5 0.5 76
2019-11-09 06:00:00 8.6 8 Norte 30 Noroeste 0 1021.8 -0.6 75
2019-11-09 05:00:00 8.6 12 Noroeste 28 Noroeste 0 1021.9 -0.4 73
2019-11-09 04:00:00 9 12 Noroeste 29 Oeste 0 1022 -0.5 69
2019-11-09 03:00:00 9.4 13 Noroeste 24 Oeste 0 1022.4 0 69
2019-11-09 02:00:00 10 13 Noroeste 33 Noroeste 0 1022.3 0 66
2019-11-09 01:00:00 10.8 13 Noroeste 27 Noroeste 0 1022.5 0.5 61
2019-11-09 00:00:00 11.5 11 Noroeste 19 Noroeste 0 1022.4 0.9 59
2019-11-08 23:00:00 12.6 7 Noroeste 19 Noroeste 0 1022.3 1.4 53
2019-11-08 22:00:00 11.5 9 Noroeste 21 Nordeste 0 1022 1.8 53
2019-11-08 21:00:00 14.4 12 Norte 30 Norte 0 1021.5 2.1 43
2019-11-08 20:00:00 14.8 6 Norte 13 Oeste 0 1020.9 2.1 40
2019-11-08 19:00:00 15.7 6 Noroeste 29 Norte 0 1020.2 1.8 37
2019-11-08 18:00:00 17.4 13 Norte 28 Oeste 0 1019.4 1 31
2019-11-08 17:00:00 18.3 14 Norte 35 Norte 0 1018.8 0.3 28
2019-11-08 16:00:00 18.7 11 Noroeste 43 Noroeste 0 1018.4 -1.1 30
2019-11-08 15:00:00 18.6 14 Norte 38 Norte 0 1018.4 -1.5 32
2019-11-08 14:00:00 18.2 19 Noroeste 41 Noroeste 0 1018.5 -1.5 33
2019-11-08 13:00:00 17.1 15 Noroeste 45 Noroeste 0 1019.5 -0.5 37
2019-11-08 12:00:00 16.1 16 Norte 41 Noroeste 0 1019.9 0.8 43
2019-11-08 11:00:00 15.4 13 Noroeste 30 Noroeste 0 1020 1.8 49
2019-11-08 10:00:00 13.9 13 Noroeste 22 Noroeste 0 1020 2.5 67
2019-11-08 09:00:00 12.3 15 Oeste 23 Oeste 0 1019.1 1.8 78
2019-11-08 08:00:00 10.9 13 Oeste 18 Oeste 0 1018.2 1.3 84
2019-11-08 07:00:00 10.8 8 Oeste 12 Oeste 0 1017.5 0.8 81
2019-11-08 06:00:00 10.7 9 Oeste 17 Noroeste 0 1017.3 0.7 81
2019-11-08 05:00:00 11.1 14 Noroeste 20 Noroeste 0 1016.9 0.4 77
2019-11-08 04:00:00 10.5 11 Noroeste 17 Noroeste 0 1016.7 0 81
2019-11-08 03:00:00 10.3 12 Noroeste 17 Noroeste 0 1016.6 -0.1 77
2019-11-08 02:00:00 10.9 12 Oeste 16 Oeste 0 1016.5 -0.3 73
2019-11-08 01:00:00 12 8 Sudoeste 13 Oeste 0 1016.7 0.2 67
2019-11-08 00:00:00 12.3 8 Noroeste 14 Noroeste 0 1016.7 0.6 65